createdAt,value
2023-05-23T00:00:26.080Z,331
2023-05-23T00:02:25.142Z,336
2023-05-23T00:03:25.666Z,334
2023-05-23T00:04:25.193Z,340
2023-05-23T00:05:24.709Z,339
2023-05-23T00:07:24.508Z,336
2023-05-23T00:08:25.009Z,341
2023-05-23T00:09:25.276Z,349
2023-05-23T00:10:25.317Z,351
2023-05-23T00:11:25.195Z,350
2023-05-23T00:12:24.554Z,343
2023-05-23T00:13:24.529Z,350
2023-05-23T00:14:24.551Z,364
2023-05-23T00:15:24.764Z,365
2023-05-23T00:16:25.217Z,346
2023-05-23T00:17:24.515Z,335
2023-05-23T00:18:25.151Z,331
2023-05-23T00:19:25.025Z,333
2023-05-23T00:20:25.436Z,335
2023-05-23T00:21:24.789Z,344
2023-05-23T00:22:24.688Z,349
2023-05-23T00:23:24.658Z,351
2023-05-23T00:24:24.877Z,343
2023-05-23T00:25:25.109Z,337
2023-05-23T00:26:24.666Z,338
2023-05-23T00:27:24.727Z,337
2023-05-23T00:28:24.956Z,335
2023-05-23T00:29:24.897Z,340
2023-05-23T00:30:25.565Z,333
2023-05-23T00:31:24.672Z,328
2023-05-23T00:32:25.048Z,334
2023-05-23T00:33:25.133Z,337
2023-05-23T00:34:25.572Z,341
2023-05-23T00:35:24.836Z,336
2023-05-23T00:37:25.017Z,329
2023-05-23T00:38:24.856Z,336
2023-05-23T00:39:24.932Z,342
2023-05-23T00:40:25.262Z,343
2023-05-23T00:41:24.776Z,349
2023-05-23T00:42:25.133Z,334
2023-05-23T00:43:25.012Z,351
2023-05-23T00:44:25.140Z,355
2023-05-23T00:45:25.730Z,348
2023-05-23T00:46:24.690Z,342
2023-05-23T00:47:25.405Z,352
2023-05-23T00:48:25.060Z,344
2023-05-23T00:49:24.727Z,348
2023-05-23T00:50:25.434Z,346
2023-05-23T00:51:24.854Z,342
2023-05-23T00:52:25.306Z,348
2023-05-23T00:53:24.941Z,344
2023-05-23T00:54:25.050Z,345
2023-05-23T00:55:24.993Z,352
2023-05-23T00:56:25.251Z,358
2023-05-23T00:57:24.781Z,360
2023-05-23T00:58:25.184Z,357
2023-05-23T00:59:24.887Z,339
2023-05-23T01:00:26.305Z,335
2023-05-23T01:01:25.066Z,340
2023-05-23T01:02:24.634Z,344
2023-05-23T01:03:25.324Z,347
2023-05-23T01:04:25.321Z,349
2023-05-23T01:05:25.431Z,348
2023-05-23T01:06:24.858Z,347
2023-05-23T01:07:24.867Z,353
2023-05-23T01:08:25.047Z,344
2023-05-23T01:09:24.869Z,340
2023-05-23T01:10:25.596Z,337
2023-05-23T01:11:25.098Z,349
2023-05-23T01:12:25.215Z,351
2023-05-23T01:13:24.708Z,342
2023-05-23T01:14:24.872Z,341
2023-05-23T01:15:25.368Z,340
2023-05-23T01:16:25.159Z,336
2023-05-23T01:17:24.785Z,349
2023-05-23T01:18:24.934Z,353
2023-05-23T01:19:25.004Z,355
2023-05-23T01:20:25.492Z,346
2023-05-23T01:21:24.649Z,343
2023-05-23T01:22:24.874Z,336
2023-05-23T01:24:24.689Z,342
2023-05-23T01:25:25.055Z,339
2023-05-23T01:26:24.899Z,334
2023-05-23T01:27:25.198Z,339
2023-05-23T01:28:24.565Z,335
2023-05-23T01:29:24.842Z,345
2023-05-23T01:30:25.314Z,344
2023-05-23T01:31:24.854Z,341
2023-05-23T01:32:25.100Z,351
2023-05-23T01:33:24.503Z,350
2023-05-23T01:35:24.824Z,348
2023-05-23T01:36:24.979Z,337
2023-05-23T01:38:24.895Z,346
2023-05-23T01:39:25.004Z,339
2023-05-23T01:40:25.456Z,340
2023-05-23T01:41:24.626Z,350
2023-05-23T01:42:24.994Z,356
2023-05-23T01:43:25.581Z,354
2023-05-23T01:44:25.590Z,355
2023-05-23T01:45:25.303Z,348
2023-05-23T01:46:25.209Z,361
2023-05-23T01:47:25.087Z,364
2023-05-23T01:48:25.294Z,360
2023-05-23T01:49:25.186Z,365
2023-05-23T01:50:25.343Z,348
2023-05-23T01:51:24.967Z,341
2023-05-23T01:52:25.471Z,342
2023-05-23T01:53:25.166Z,332
2023-05-23T01:54:25.257Z,334
2023-05-23T01:55:25.040Z,338
2023-05-23T01:56:24.697Z,342
2023-05-23T01:57:25.075Z,354
2023-05-23T01:58:25.309Z,347
2023-05-23T01:59:24.603Z,344
2023-05-23T02:00:26.846Z,349
2023-05-23T02:01:25.468Z,343
2023-05-23T02:02:24.936Z,333
2023-05-23T02:03:24.553Z,339
2023-05-23T02:04:25.518Z,343
2023-05-23T02:05:25.440Z,342
2023-05-23T02:06:25.450Z,347
2023-05-23T02:07:24.947Z,357
2023-05-23T02:08:25.191Z,344
2023-05-23T02:09:24.599Z,343
2023-05-23T02:10:25.498Z,346
2023-05-23T02:11:25.249Z,349
2023-05-23T02:12:24.801Z,348
2023-05-23T02:13:24.949Z,347
2023-05-23T02:14:25.421Z,355
2023-05-23T02:15:24.989Z,343
2023-05-23T02:16:24.607Z,353
2023-05-23T02:17:25.072Z,347
2023-05-23T02:18:24.415Z,346
2023-05-23T02:19:24.755Z,352
2023-05-23T02:20:25.408Z,348
2023-05-23T02:21:24.616Z,339
2023-05-23T02:22:24.934Z,336
2023-05-23T02:23:25.598Z,337
2023-05-23T02:24:25.231Z,344
2023-05-23T02:25:25.140Z,346
2023-05-23T02:26:24.917Z,338
2023-05-23T02:27:25.127Z,334
2023-05-23T02:28:25.357Z,342
2023-05-23T02:29:25.082Z,350
2023-05-23T02:30:25.893Z,351
2023-05-23T02:31:25.231Z,360
2023-05-23T02:32:24.817Z,354
2023-05-23T02:33:25.101Z,343
2023-05-23T02:34:24.510Z,335
2023-05-23T02:35:25.369Z,341
2023-05-23T02:36:25.303Z,347
2023-05-23T02:37:24.465Z,362
2023-05-23T02:38:25.523Z,357
2023-05-23T02:39:25.591Z,346
2023-05-23T02:40:25.629Z,342
2023-05-23T02:41:25.301Z,344
2023-05-23T02:42:24.877Z,345
2023-05-23T02:43:25.049Z,349
2023-05-23T02:44:25.216Z,341
2023-05-23T02:45:24.981Z,338
2023-05-23T02:46:24.743Z,343
2023-05-23T02:47:25.801Z,348
2023-05-23T02:48:25.262Z,337
2023-05-23T02:49:24.932Z,336
2023-05-23T02:50:25.214Z,342
2023-05-23T02:51:25.502Z,344
2023-05-23T02:52:24.603Z,349
2023-05-23T02:53:24.909Z,341
2023-05-23T02:54:25.376Z,342
2023-05-23T02:55:25.446Z,335
2023-05-23T02:56:25.215Z,342
2023-05-23T02:57:24.678Z,334
2023-05-23T02:58:25.515Z,335
2023-05-23T02:59:25.039Z,345
2023-05-23T03:01:24.978Z,342
2023-05-23T03:02:25.321Z,350
2023-05-23T03:03:24.818Z,343
2023-05-23T03:04:25.467Z,354
2023-05-23T03:05:24.585Z,351
2023-05-23T03:06:25.370Z,350
2023-05-23T03:07:28.066Z,347
2023-05-23T03:08:25.077Z,345
2023-05-23T03:09:24.998Z,346
2023-05-23T03:11:24.726Z,360
2023-05-23T03:12:25.077Z,351
2023-05-23T03:13:25.389Z,344
2023-05-23T03:14:24.375Z,345
2023-05-23T03:15:24.733Z,338
2023-05-23T03:16:25.185Z,342
2023-05-23T03:17:25.236Z,350
2023-05-23T03:18:24.644Z,346
2023-05-23T03:19:24.842Z,343
2023-05-23T03:20:25.231Z,341
2023-05-23T03:21:25.263Z,338
2023-05-23T03:22:24.589Z,339
2023-05-23T03:23:24.910Z,338
2023-05-23T03:24:24.808Z,346
2023-05-23T03:25:25.306Z,343
2023-05-23T03:27:25.213Z,348
2023-05-23T03:28:24.603Z,338
2023-05-23T03:29:24.611Z,336
2023-05-23T03:30:25.437Z,327
2023-05-23T03:31:24.777Z,334
2023-05-23T03:32:25.154Z,348
2023-05-23T03:33:43.741Z,339
2023-05-23T03:34:25.021Z,349
2023-05-23T03:35:25.107Z,350
2023-05-23T03:36:24.820Z,348
2023-05-23T03:37:24.787Z,347
2023-05-23T03:38:25.251Z,349
2023-05-23T03:39:24.507Z,351
2023-05-23T03:40:24.854Z,342
2023-05-23T03:41:24.832Z,333
2023-05-23T03:42:25.114Z,330
2023-05-23T03:43:25.119Z,334
2023-05-23T03:44:25.066Z,333
2023-05-23T03:45:25.090Z,345
2023-05-23T03:46:25.010Z,347
2023-05-23T03:47:25.616Z,339
2023-05-23T03:48:25.182Z,350
2023-05-23T03:49:25.044Z,354
2023-05-23T03:50:25.412Z,355
2023-05-23T03:51:24.530Z,345
2023-05-23T03:52:24.500Z,340
2023-05-23T03:53:25.207Z,333
2023-05-23T03:55:25.061Z,341
2023-05-23T03:56:24.486Z,333
2023-05-23T03:57:24.842Z,334
2023-05-23T03:58:25.490Z,338
2023-05-23T03:59:24.830Z,336
2023-05-23T04:00:26.540Z,344
2023-05-23T04:01:25.090Z,348
2023-05-23T04:02:25.876Z,338
2023-05-23T04:03:25.754Z,333
2023-05-23T04:04:25.713Z,342
2023-05-23T04:05:25.381Z,336
2023-05-23T04:06:24.972Z,344
2023-05-23T04:08:23.882Z,346
2023-05-23T04:09:25.111Z,355
2023-05-23T04:10:25.450Z,350
2023-05-23T04:11:24.301Z,339
2023-05-23T04:12:24.979Z,333
2023-05-23T04:13:25.216Z,335
2023-05-23T04:14:24.737Z,338
2023-05-23T04:15:25.582Z,345
2023-05-23T04:16:25.014Z,351
2023-05-23T04:17:25.567Z,342
2023-05-23T04:18:24.720Z,346
2023-05-23T04:19:25.034Z,351
2023-05-23T04:20:25.393Z,354
2023-05-23T04:21:24.671Z,350
2023-05-23T04:22:25.017Z,344
2023-05-23T04:23:24.923Z,348
2023-05-23T04:24:24.987Z,345
2023-05-23T04:25:25.269Z,347
2023-05-23T04:26:24.990Z,349
2023-05-23T04:27:25.212Z,356
2023-05-23T04:28:24.544Z,359
2023-05-23T04:29:24.827Z,352
2023-05-23T04:30:25.518Z,343
2023-05-23T04:31:24.883Z,350
2023-05-23T04:32:24.871Z,344
2023-05-23T04:33:25.259Z,347
2023-05-23T04:34:25.611Z,346
2023-05-23T04:35:25.389Z,336
2023-05-23T04:36:25.567Z,348
2023-05-23T04:38:25.176Z,347
2023-05-23T04:40:25.316Z,342
2023-05-23T04:41:24.745Z,341
2023-05-23T04:43:24.624Z,351
2023-05-23T04:44:24.672Z,352
2023-05-23T04:45:25.316Z,341
2023-05-23T04:46:25.026Z,333
2023-05-23T04:47:24.802Z,342
2023-05-23T04:49:25.079Z,345
2023-05-23T04:50:25.540Z,349
2023-05-23T04:51:25.032Z,352
2023-05-23T04:52:24.963Z,338
2023-05-23T04:53:25.133Z,343
2023-05-23T04:54:25.655Z,360
2023-05-23T04:55:25.740Z,350
2023-05-23T04:56:25.495Z,353
2023-05-23T04:57:24.937Z,349
2023-05-23T04:58:24.977Z,338
2023-05-23T04:59:24.978Z,346
2023-05-23T05:00:26.418Z,347
2023-05-23T05:01:24.732Z,342
2023-05-23T05:02:25.161Z,332
2023-05-23T05:03:25.026Z,338
2023-05-23T05:04:25.616Z,335
2023-05-23T05:05:25.395Z,340
2023-05-23T05:06:24.896Z,346
2023-05-23T05:07:25.643Z,353
2023-05-23T05:08:25.271Z,352
2023-05-23T05:09:24.780Z,344
2023-05-23T05:10:25.521Z,346
2023-05-23T05:11:24.632Z,337
2023-05-23T05:12:25.350Z,355
2023-05-23T05:13:24.745Z,346
2023-05-23T05:14:25.284Z,345
2023-05-23T05:15:25.102Z,348
2023-05-23T05:16:25.225Z,349
2023-05-23T05:17:25.045Z,346
2023-05-23T05:18:24.941Z,357
2023-05-23T05:20:31.263Z,356
2023-05-23T05:21:24.864Z,357
2023-05-23T05:22:25.278Z,353
2023-05-23T05:23:25.027Z,356
2023-05-23T05:24:25.456Z,354
2023-05-23T05:25:25.280Z,342
2023-05-23T05:26:25.020Z,339
2023-05-23T05:27:27.167Z,329
2023-05-23T05:28:25.185Z,331
2023-05-23T05:29:24.871Z,347
2023-05-23T05:30:25.368Z,344
2023-05-23T05:31:25.366Z,343
2023-05-23T05:32:25.023Z,346
2023-05-23T05:33:24.584Z,344
2023-05-23T05:34:33.385Z,345
2023-05-23T05:35:25.302Z,347
2023-05-23T05:36:24.690Z,353
2023-05-23T05:37:25.239Z,347
2023-05-23T05:38:24.935Z,344
2023-05-23T05:39:24.920Z,348
2023-05-23T05:40:25.719Z,349
2023-05-23T05:41:24.973Z,345
2023-05-23T05:43:24.539Z,354
2023-05-23T05:44:24.910Z,347
2023-05-23T05:45:25.503Z,339
2023-05-23T05:46:24.803Z,340
2023-05-23T05:47:25.138Z,339
2023-05-23T05:48:24.831Z,344
2023-05-23T05:50:24.851Z,349
2023-05-23T05:51:24.944Z,351
2023-05-23T05:52:25.322Z,365
2023-05-23T05:53:24.874Z,359
2023-05-23T05:54:25.459Z,346
2023-05-23T05:55:25.282Z,344
2023-05-23T05:56:24.837Z,346
2023-05-23T05:57:25.454Z,341
2023-05-23T05:59:24.898Z,332
2023-05-23T06:00:26.453Z,334
2023-05-23T06:01:24.965Z,335
2023-05-23T06:02:43.956Z,327
2023-05-23T06:03:24.503Z,332
2023-05-23T06:04:25.553Z,350
2023-05-23T06:05:25.517Z,354
2023-05-23T06:06:25.273Z,361
2023-05-23T06:07:24.723Z,340
2023-05-23T06:08:25.410Z,341
2023-05-23T06:10:25.403Z,343
2023-05-23T06:11:24.961Z,346
2023-05-23T06:12:25.187Z,349
2023-05-23T06:13:24.766Z,342
2023-05-23T06:14:24.892Z,341
2023-05-23T06:15:25.509Z,338
2023-05-23T06:16:25.397Z,341
2023-05-23T06:17:24.886Z,334
2023-05-23T06:18:24.803Z,333
2023-05-23T06:20:24.986Z,341
2023-05-23T06:22:25.111Z,336
2023-05-23T06:23:25.277Z,340
2023-05-23T06:24:25.387Z,350
2023-05-23T06:26:25.440Z,340
2023-05-23T06:27:25.479Z,345
2023-05-23T06:28:25.250Z,347
2023-05-23T06:29:25.239Z,348
2023-05-23T06:30:25.444Z,345
2023-05-23T06:32:25.346Z,349
2023-05-23T06:33:25.048Z,338
2023-05-23T06:35:25.262Z,344
2023-05-23T06:36:25.155Z,353
2023-05-23T06:37:25.051Z,345
2023-05-23T06:38:25.040Z,341
2023-05-23T06:39:25.278Z,338
2023-05-23T06:42:25.276Z,342
2023-05-23T06:43:25.168Z,345
2023-05-23T06:44:25.032Z,333
2023-05-23T06:45:25.873Z,335
2023-05-23T06:46:25.181Z,334
2023-05-23T06:47:25.676Z,344
2023-05-23T06:48:25.360Z,345
2023-05-23T06:49:25.135Z,337
2023-05-23T06:50:25.518Z,332
2023-05-23T06:51:25.344Z,346
2023-05-23T06:52:25.261Z,336
2023-05-23T06:53:25.522Z,341
2023-05-23T06:54:25.461Z,342
2023-05-23T06:55:25.601Z,345
2023-05-23T06:56:25.166Z,348
2023-05-23T06:57:25.423Z,344
2023-05-23T06:58:25.323Z,340
2023-05-23T06:59:25.457Z,348
2023-05-23T07:00:26.302Z,355
2023-05-23T07:01:25.278Z,354
2023-05-23T07:02:25.348Z,343
2023-05-23T07:03:25.623Z,345
2023-05-23T07:04:25.685Z,355
2023-05-23T07:05:25.941Z,348
2023-05-23T07:06:25.329Z,343
2023-05-23T07:07:25.488Z,336
2023-05-23T07:08:25.361Z,335
2023-05-23T07:09:25.125Z,346
2023-05-23T07:10:24.965Z,342
2023-05-23T07:11:25.113Z,348
2023-05-23T07:13:24.862Z,355
2023-05-23T07:14:25.542Z,345
2023-05-23T07:15:25.509Z,335
2023-05-23T07:16:25.279Z,338
2023-05-23T07:17:25.303Z,339
2023-05-23T07:18:25.112Z,343
2023-05-23T07:19:24.988Z,344
2023-05-23T07:20:24.968Z,350
2023-05-23T07:21:25.102Z,345
2023-05-23T07:22:25.414Z,344
2023-05-23T07:23:25.586Z,351
2023-05-23T07:24:25.792Z,354
2023-05-23T07:25:25.710Z,349
2023-05-23T07:26:25.151Z,344
2023-05-23T07:27:25.234Z,340
2023-05-23T07:28:25.208Z,341
2023-05-23T07:29:25.142Z,353
2023-05-23T07:30:26.073Z,345
2023-05-23T07:31:25.647Z,344
2023-05-23T07:32:25.806Z,343
2023-05-23T07:33:24.870Z,355
2023-05-23T07:34:24.952Z,349
2023-05-23T07:35:25.160Z,342
2023-05-23T07:36:25.345Z,344
2023-05-23T07:37:25.401Z,350
2023-05-23T07:38:25.292Z,349
2023-05-23T07:40:24.931Z,344
2023-05-23T07:41:25.188Z,339
2023-05-23T07:42:24.977Z,334
2023-05-23T07:43:24.808Z,332
2023-05-23T07:44:25.530Z,338
2023-05-23T07:45:25.782Z,335
2023-05-23T07:46:25.809Z,341
2023-05-23T07:47:25.116Z,336
2023-05-23T07:48:25.786Z,334
2023-05-23T07:49:30.018Z,346
2023-05-23T07:50:25.676Z,339
2023-05-23T07:51:30.089Z,340
2023-05-23T07:52:25.506Z,329
2023-05-23T07:53:25.440Z,331
2023-05-23T07:54:25.046Z,342
2023-05-23T07:57:32.160Z,338
2023-05-23T07:59:33.365Z,344
2023-05-23T08:00:26.707Z,341
2023-05-23T08:01:33.789Z,335
2023-05-23T08:02:25.121Z,343
2023-05-23T08:03:25.257Z,333
2023-05-23T08:04:25.355Z,334
2023-05-23T08:05:25.872Z,333
2023-05-23T08:06:25.108Z,331
2023-05-23T08:07:24.949Z,333
2023-05-23T08:08:25.076Z,325
2023-05-23T08:09:25.315Z,328
2023-05-23T08:10:25.445Z,324
2023-05-23T08:11:25.794Z,332
2023-05-23T08:12:25.556Z,338
2023-05-23T08:13:39.636Z,332
2023-05-23T08:14:31.756Z,319
2023-05-23T08:15:26.030Z,313
2023-05-23T08:16:25.048Z,320
2023-05-23T08:17:25.020Z,328
2023-05-23T08:19:25.887Z,327
2023-05-23T08:20:25.067Z,329
2023-05-23T08:22:25.532Z,330
2023-05-23T08:23:25.226Z,333
2023-05-23T08:24:25.423Z,335
2023-05-23T08:25:25.554Z,332
2023-05-23T08:26:25.770Z,333
2023-05-23T08:27:25.579Z,340
2023-05-23T08:29:25.263Z,331
2023-05-23T08:30:25.643Z,320
2023-05-23T08:31:25.252Z,324
2023-05-23T08:33:24.754Z,329
2023-05-23T08:34:25.519Z,333
2023-05-23T08:36:25.034Z,337
2023-05-23T08:37:24.875Z,329
2023-05-23T08:38:25.681Z,327
2023-05-23T08:40:25.940Z,330
2023-05-23T08:41:24.895Z,329
2023-05-23T08:42:25.025Z,325
2023-05-23T08:43:25.049Z,312
2023-05-23T08:44:25.269Z,328
2023-05-23T08:45:25.426Z,333
2023-05-23T08:46:25.550Z,338
2023-05-23T08:47:25.664Z,335
2023-05-23T08:48:25.780Z,331
2023-05-23T08:49:25.837Z,327
2023-05-23T08:50:25.203Z,318
2023-05-23T08:51:25.684Z,331
2023-05-23T08:52:25.523Z,326
2023-05-23T08:53:25.382Z,330
2023-05-23T08:54:25.576Z,329
2023-05-23T08:55:26.020Z,324
2023-05-23T08:56:25.698Z,328
2023-05-23T08:57:25.608Z,329
2023-05-23T08:58:25.569Z,317
2023-05-23T08:59:25.583Z,325
2023-05-23T09:00:26.327Z,332
2023-05-23T09:02:24.676Z,329
2023-05-23T09:03:25.468Z,324
2023-05-23T09:04:25.671Z,330
2023-05-23T09:05:25.630Z,327
2023-05-23T09:06:25.696Z,328
2023-05-23T09:07:25.665Z,329
2023-05-23T09:08:25.755Z,324
2023-05-23T09:09:25.702Z,329
2023-05-23T09:10:24.956Z,327
2023-05-23T09:11:25.365Z,330
2023-05-23T09:12:25.613Z,337
2023-05-23T09:13:25.340Z,330
2023-05-23T09:14:25.160Z,323
2023-05-23T09:15:25.168Z,334
2023-05-23T09:16:25.053Z,331
2023-05-23T09:17:25.591Z,330
2023-05-23T09:18:25.317Z,336
2023-05-23T09:19:25.327Z,326
2023-05-23T09:20:26.015Z,327
2023-05-23T09:21:25.593Z,333
2023-05-23T09:23:25.108Z,338
2023-05-23T09:24:24.968Z,331
2023-05-23T09:25:25.217Z,334
2023-05-23T09:26:24.942Z,332
2023-05-23T09:28:25.393Z,321
2023-05-23T09:29:24.967Z,326
2023-05-23T09:30:25.305Z,332
2023-05-23T09:31:25.306Z,335
2023-05-23T09:32:25.600Z,346
2023-05-23T09:33:25.708Z,335
2023-05-23T09:34:26.103Z,339
2023-05-23T09:35:25.172Z,343
2023-05-23T09:36:25.470Z,333
2023-05-23T09:37:25.810Z,335
2023-05-23T09:39:25.349Z,340
2023-05-23T09:40:25.659Z,345
2023-05-23T09:41:25.140Z,337
2023-05-23T09:42:25.493Z,340
2023-05-23T09:43:25.520Z,322
2023-05-23T09:45:26.058Z,334
2023-05-23T09:46:25.412Z,342
2023-05-23T09:47:26.054Z,352
2023-05-23T09:48:25.338Z,345
2023-05-23T09:49:25.054Z,351
2023-05-23T09:50:25.572Z,360
2023-05-23T09:51:25.590Z,337
2023-05-23T09:52:25.764Z,336
2023-05-23T09:53:25.752Z,345
2023-05-23T09:54:25.760Z,346
2023-05-23T09:55:25.902Z,337
2023-05-23T09:56:25.516Z,339
2023-05-23T09:57:25.271Z,330
2023-05-23T09:58:25.730Z,328
2023-05-23T09:59:25.722Z,329
2023-05-23T10:00:26.359Z,339
2023-05-23T10:01:25.565Z,344
2023-05-23T10:02:25.938Z,341
2023-05-23T10:03:24.988Z,338
2023-05-23T10:05:25.345Z,325
2023-05-23T10:07:25.028Z,325
2023-05-23T10:08:25.163Z,329
2023-05-23T10:10:26.008Z,341
2023-05-23T10:11:25.643Z,344
2023-05-23T10:12:25.857Z,336
2023-05-23T10:13:25.413Z,338
2023-05-23T10:14:30.369Z,347
2023-05-23T10:15:25.314Z,342
2023-05-23T10:16:25.373Z,330
2023-05-23T10:17:25.651Z,335
2023-05-23T10:18:29.960Z,340
2023-05-23T10:19:25.442Z,347
2023-05-23T10:20:25.064Z,337
2023-05-23T10:21:24.810Z,333
2023-05-23T10:22:26.753Z,337
2023-05-23T10:23:26.155Z,339
2023-05-23T10:24:26.359Z,338
2023-05-23T10:25:26.594Z,341
2023-05-23T10:26:26.154Z,348
2023-05-23T10:27:25.552Z,353
2023-05-23T10:28:26.250Z,349
2023-05-23T10:29:25.908Z,342
2023-05-23T10:30:27.029Z,346
2023-05-23T10:31:26.335Z,343
2023-05-23T10:33:26.706Z,351
2023-05-23T10:34:26.358Z,348
2023-05-23T10:35:26.250Z,337
2023-05-23T10:36:26.216Z,336
2023-05-23T10:37:25.729Z,334
2023-05-23T10:38:26.347Z,354
2023-05-23T10:40:26.738Z,348
2023-05-23T10:41:26.060Z,356
2023-05-23T10:42:25.973Z,352
2023-05-23T10:43:25.995Z,348
2023-05-23T10:44:26.556Z,347
2023-05-23T10:45:26.954Z,352
2023-05-23T10:46:27.281Z,350
2023-05-23T10:47:26.529Z,353
2023-05-23T10:48:26.826Z,346
2023-05-23T10:49:27.163Z,337
2023-05-23T10:51:27.019Z,333
2023-05-23T10:52:26.168Z,329
2023-05-23T10:53:26.687Z,336
2023-05-23T10:55:26.705Z,334
2023-05-23T10:56:26.335Z,333
2023-05-23T10:57:25.969Z,329
2023-05-23T10:58:25.659Z,322
2023-05-23T10:59:26.375Z,333
2023-05-23T11:00:26.896Z,343
2023-05-23T11:01:25.743Z,330
2023-05-23T11:02:25.583Z,328
2023-05-23T11:03:26.814Z,327
2023-05-23T11:04:25.732Z,326
2023-05-23T11:05:25.580Z,333
2023-05-23T11:07:25.911Z,321
2023-05-23T11:08:35.440Z,326
2023-05-23T11:09:25.450Z,332
2023-05-23T11:10:26.178Z,330
2023-05-23T11:11:26.212Z,327
2023-05-23T11:12:25.808Z,329
2023-05-23T11:13:25.431Z,326
2023-05-23T11:14:26.201Z,313
2023-05-23T11:15:26.484Z,321
2023-05-23T11:16:25.762Z,339
2023-05-23T11:17:26.028Z,348
2023-05-23T11:18:26.006Z,335
2023-05-23T11:19:26.490Z,327
2023-05-23T11:20:25.401Z,329
2023-05-23T11:21:25.825Z,335
2023-05-23T11:22:25.594Z,321
2023-05-23T11:23:25.488Z,309
2023-05-23T11:24:25.804Z,318
2023-05-23T11:25:26.261Z,328
2023-05-23T11:26:26.144Z,320
2023-05-23T11:27:26.237Z,324
2023-05-23T11:28:26.283Z,327
2023-05-23T11:29:26.286Z,324
2023-05-23T11:30:26.487Z,339
2023-05-23T11:31:25.892Z,336
2023-05-23T11:32:25.959Z,333
2023-05-23T11:33:25.915Z,334
2023-05-23T11:34:25.032Z,331
2023-05-23T11:35:24.937Z,326
2023-05-23T11:36:25.694Z,315
2023-05-23T11:37:27.261Z,330
2023-05-23T11:38:25.364Z,348
2023-05-23T11:39:25.003Z,340
2023-05-23T11:41:25.519Z,330
2023-05-23T11:43:25.259Z,325
2023-05-23T11:44:25.180Z,329
2023-05-23T11:45:26.087Z,327
2023-05-23T11:46:25.297Z,326
2023-05-23T11:48:25.106Z,330
2023-05-23T11:50:25.968Z,324
2023-05-23T11:52:25.477Z,326
2023-05-23T11:53:25.988Z,332
2023-05-23T11:54:24.754Z,336
2023-05-23T11:55:25.808Z,333
2023-05-23T11:56:25.292Z,337
2023-05-23T11:57:25.144Z,341
2023-05-23T11:58:25.583Z,334
2023-05-23T11:59:25.166Z,339
2023-05-23T12:00:25.859Z,335
2023-05-23T12:01:24.915Z,324
2023-05-23T12:03:25.443Z,326
2023-05-23T12:04:25.343Z,339
2023-05-23T12:05:25.519Z,346
2023-05-23T12:06:25.609Z,343
2023-05-23T12:07:25.628Z,325
2023-05-23T12:08:25.619Z,317
2023-05-23T12:10:25.327Z,339
2023-05-23T12:11:25.314Z,331
2023-05-23T12:13:24.806Z,324
2023-05-23T12:14:25.403Z,327
2023-05-23T12:15:24.810Z,335
2023-05-23T12:16:25.543Z,325
2023-05-23T12:17:25.480Z,317
2023-05-23T12:18:25.608Z,326
2023-05-23T12:20:25.875Z,334
2023-05-23T12:21:25.326Z,350
2023-05-23T12:22:25.437Z,335
2023-05-23T12:23:25.053Z,328
2023-05-23T12:24:25.225Z,339
2023-05-23T12:25:25.806Z,323
2023-05-23T12:27:25.301Z,325
2023-05-23T12:28:25.489Z,332
2023-05-23T12:29:25.724Z,338
2023-05-23T12:31:25.065Z,333
2023-05-23T12:32:25.277Z,338
2023-05-23T12:33:25.747Z,345
2023-05-23T12:34:25.943Z,338
2023-05-23T12:35:25.695Z,336
2023-05-23T12:36:26.117Z,329
2023-05-23T12:37:25.086Z,326
2023-05-23T12:39:25.702Z,335
2023-05-23T12:40:25.993Z,327
2023-05-23T12:41:25.051Z,326
2023-05-23T12:42:25.348Z,325
2023-05-23T12:44:25.617Z,320
2023-05-23T12:45:26.023Z,328
2023-05-23T12:46:25.701Z,338
2023-05-23T12:47:25.956Z,345
2023-05-23T12:48:25.759Z,340
2023-05-23T12:49:26.182Z,333
2023-05-23T12:50:25.338Z,329
2023-05-23T12:51:25.846Z,321
2023-05-23T12:52:25.681Z,323
2023-05-23T12:53:25.836Z,321
2023-05-23T12:54:24.864Z,315
2023-05-23T12:56:25.382Z,321
2023-05-23T12:57:25.676Z,320
2023-05-23T12:59:25.323Z,317
2023-05-23T13:00:26.052Z,325
2023-05-23T13:02:25.426Z,324
2023-05-23T13:03:25.235Z,331
2023-05-23T13:04:25.471Z,334
2023-05-23T13:05:25.560Z,324
2023-05-23T13:06:25.141Z,333
2023-05-23T13:07:25.101Z,334
2023-05-23T13:09:25.359Z,329
2023-05-23T13:10:25.596Z,336
2023-05-23T13:11:25.537Z,339
2023-05-23T13:13:25.815Z,339
2023-05-23T13:14:25.280Z,335
2023-05-23T13:15:26.199Z,334
2023-05-23T13:16:25.433Z,328
2023-05-23T13:17:25.568Z,320
2023-05-23T13:19:25.417Z,336
2023-05-23T13:20:25.814Z,337
2023-05-23T13:21:25.911Z,332
2023-05-23T13:22:25.215Z,333
2023-05-23T13:23:25.387Z,336
2023-05-23T13:24:25.665Z,327
2023-05-23T13:25:25.642Z,326
2023-05-23T13:26:25.122Z,327
2023-05-23T13:27:25.690Z,333
2023-05-23T13:28:25.660Z,340
2023-05-23T13:30:25.834Z,339
2023-05-23T13:31:25.954Z,338
2023-05-23T13:32:25.429Z,332
2023-05-23T13:33:25.848Z,326
2023-05-23T13:34:25.001Z,331
2023-05-23T13:35:25.200Z,328
2023-05-23T13:36:25.860Z,338
2023-05-23T13:37:25.429Z,343
2023-05-23T13:38:26.887Z,339
2023-05-23T13:39:25.802Z,338
2023-05-23T13:40:25.735Z,336
2023-05-23T13:41:25.316Z,327
2023-05-23T13:42:25.130Z,332
2023-05-23T13:43:25.512Z,344
2023-05-23T13:44:26.022Z,343
2023-05-23T13:45:25.828Z,329
2023-05-23T13:46:25.529Z,327
2023-05-23T13:47:26.111Z,317
2023-05-23T13:48:25.809Z,331
2023-05-23T13:49:25.020Z,329
2023-05-23T13:50:25.837Z,342
2023-05-23T13:51:25.557Z,341
2023-05-23T13:52:25.672Z,339
2023-05-23T13:53:24.954Z,333
2023-05-23T13:54:25.173Z,327
2023-05-23T13:55:25.720Z,322
2023-05-23T13:56:25.657Z,332
2023-05-23T13:57:25.870Z,329
2023-05-23T13:58:25.362Z,331
2023-05-23T13:59:25.756Z,341
2023-05-23T14:00:26.206Z,342
2023-05-23T14:01:25.919Z,352
2023-05-23T14:02:25.631Z,340
2023-05-23T14:03:25.839Z,337
2023-05-23T14:04:24.994Z,342
2023-05-23T14:06:25.401Z,340
2023-05-23T14:07:25.901Z,324
2023-05-23T14:08:25.702Z,337
2023-05-23T14:09:26.004Z,340
2023-05-23T14:10:25.303Z,334
2023-05-23T14:11:25.963Z,327
2023-05-23T14:12:25.448Z,339
2023-05-23T14:13:25.633Z,343
2023-05-23T14:14:25.877Z,340
2023-05-23T14:15:26.423Z,344
2023-05-23T14:16:25.418Z,337
2023-05-23T14:17:26.124Z,329
2023-05-23T14:18:25.497Z,325
2023-05-23T14:19:25.856Z,329
2023-05-23T14:20:25.575Z,337
2023-05-23T14:21:25.985Z,335
2023-05-23T14:22:24.757Z,334
2023-05-23T14:23:25.769Z,320
2023-05-23T14:24:25.235Z,324
2023-05-23T14:25:25.401Z,322
2023-05-23T14:26:25.230Z,330
2023-05-23T14:27:25.727Z,339
2023-05-23T14:28:25.860Z,340
2023-05-23T14:29:25.125Z,334
2023-05-23T14:30:25.492Z,330
2023-05-23T14:31:25.614Z,325
2023-05-23T14:32:25.670Z,324
2023-05-23T14:33:25.852Z,328
2023-05-23T14:34:26.468Z,337
2023-05-23T14:35:26.123Z,336
2023-05-23T14:36:25.828Z,338
2023-05-23T14:37:25.810Z,329
2023-05-23T14:38:25.582Z,328
2023-05-23T14:39:25.870Z,334
2023-05-23T14:40:25.955Z,333
2023-05-23T14:41:25.519Z,342
2023-05-23T14:42:25.522Z,330
2023-05-23T14:43:25.331Z,325
2023-05-23T14:44:25.599Z,328
2023-05-23T14:45:26.400Z,330
2023-05-23T14:46:25.755Z,333
2023-05-23T14:47:25.728Z,328
2023-05-23T14:48:25.482Z,335
2023-05-23T14:49:25.401Z,337
2023-05-23T14:50:25.879Z,331
2023-05-23T14:51:43.097Z,333
2023-05-23T14:52:25.187Z,330
2023-05-23T14:54:25.634Z,348
2023-05-23T14:55:25.976Z,351
2023-05-23T14:56:25.175Z,341
2023-05-23T14:57:26.089Z,340
2023-05-23T14:58:25.400Z,331
2023-05-23T14:59:25.521Z,319